sensor_id;sensor_type;location;lat;lon;timestamp;pressure;altitude;pressure_sealevel;temperature;humidity
34241;BME280;20503;50.200;19.508;2023-04-22T00:01:29;101449.78;;;5.72;90.73
34241;BME280;20503;50.200;19.508;2023-04-22T00:06:35;101457.60;;;5.75;94.09
34241;BME280;20503;50.200;19.508;2023-04-22T00:11:43;101449.01;;;5.79;90.99
34241;BME280;20503;50.200;19.508;2023-04-22T00:16:51;101455.68;;;5.67;89.69
34241;BME280;20503;50.200;19.508;2023-04-22T00:22:00;101451.52;;;5.55;90.37
34241;BME280;20503;50.200;19.508;2023-04-22T00:27:06;101442.27;;;5.41;92.19
34241;BME280;20503;50.200;19.508;2023-04-22T00:32:14;101441.53;;;5.56;95.21
34241;BME280;20503;50.200;19.508;2023-04-22T00:37:22;101444.46;;;5.62;92.71
34241;BME280;20503;50.200;19.508;2023-04-22T00:42:29;101444.72;;;5.51;92.85
34241;BME280;20503;50.200;19.508;2023-04-22T00:47:37;101443.17;;;5.49;92.15
34241;BME280;20503;50.200;19.508;2023-04-22T00:52:44;101440.41;;;5.41;92.97
34241;BME280;20503;50.200;19.508;2023-04-22T00:57:53;101441.03;;;5.35;92.45
34241;BME280;20503;50.200;19.508;2023-04-22T01:03:01;101440.02;;;5.11;94.05
34241;BME280;20503;50.200;19.508;2023-04-22T01:08:07;101440.49;;;5.06;99.61
34241;BME280;20503;50.200;19.508;2023-04-22T01:13:15;101440.32;;;5.08;97.49
34241;BME280;20503;50.200;19.508;2023-04-22T01:18:23;101447.77;;;5.06;97.62
34241;BME280;20503;50.200;19.508;2023-04-22T01:23:30;101441.64;;;5.04;100.00
34241;BME280;20503;50.200;19.508;2023-04-22T01:28:38;101441.56;;;5.13;100.00
34241;BME280;20503;50.200;19.508;2023-04-22T01:33:46;101435.66;;;5.18;100.00
34241;BME280;20503;50.200;19.508;2023-04-22T01:38:54;101441.86;;;5.28;98.45
34241;BME280;20503;50.200;19.508;2023-04-22T01:44:02;101436.72;;;5.25;97.19
34241;BME280;20503;50.200;19.508;2023-04-22T01:49:09;101438.56;;;4.99;100.00
34241;BME280;20503;50.200;19.508;2023-04-22T01:54:17;101435.85;;;4.99;100.00
34241;BME280;20503;50.200;19.508;2023-04-22T01:59:25;101433.88;;;5.09;100.00
34241;BME280;20503;50.200;19.508;2023-04-22T02:04:32;101430.48;;;5.07;99.38
34241;BME280;20503;50.200;19.508;2023-04-22T02:09:40;101427.40;;;5.02;99.35
34241;BME280;20503;50.200;19.508;2023-04-22T02:14:48;101430.98;;;4.85;98.45
34241;BME280;20503;50.200;19.508;2023-04-22T02:19:56;101430.38;;;4.73;100.00
34241;BME280;20503;50.200;19.508;2023-04-22T02:25:05;101426.01;;;4.80;100.00
34241;BME280;20503;50.200;19.508;2023-04-22T02:30:12;101422.75;;;4.77;100.00
34241;BME280;20503;50.200;19.508;2023-04-22T02:35:19;101426.33;;;4.77;100.00
34241;BME280;20503;50.200;19.508;2023-04-22T02:40:28;101426.73;;;4.65;100.00
34241;BME280;20503;50.200;19.508;2023-04-22T02:45:35;101422.60;;;4.43;100.00
34241;BME280;20503;50.200;19.508;2023-04-22T02:50:43;101422.84;;;4.50;100.00
34241;BME280;20503;50.200;19.508;2023-04-22T02:55:51;101420.05;;;4.59;100.00
34241;BME280;20503;50.200;19.508;2023-04-22T03:00:59;101418.13;;;4.52;100.00
34241;BME280;20503;50.200;19.508;2023-04-22T03:06:07;101443.18;;;4.36;100.00
34241;BME280;20503;50.200;19.508;2023-04-22T03:11:15;101425.77;;;4.39;100.00
34241;BME280;20503;50.200;19.508;2023-04-22T03:16:23;101432.89;;;4.40;100.00
34241;BME280;20503;50.200;19.508;2023-04-22T03:21:31;101434.98;;;4.28;100.00
34241;BME280;20503;50.200;19.508;2023-04-22T03:26:40;101432.65;;;4.33;100.00
34241;BME280;20503;50.200;19.508;2023-04-22T03:31:46;101428.86;;;4.44;100.00
34241;BME280;20503;50.200;19.508;2023-04-22T03:36:54;101435.22;;;4.35;100.00
34241;BME280;20503;50.200;19.508;2023-04-22T03:42:02;101434.59;;;4.41;100.00
34241;BME280;20503;50.200;19.508;2023-04-22T03:47:10;101432.99;;;4.48;100.00
34241;BME280;20503;50.200;19.508;2023-04-22T03:52:18;101431.98;;;4.49;100.00
34241;BME280;20503;50.200;19.508;2023-04-22T03:57:27;101432.05;;;4.57;100.00
34241;BME280;20503;50.200;19.508;2023-04-22T04:02:34;101441.81;;;4.67;100.00
34241;BME280;20503;50.200;19.508;2023-04-22T04:07:41;101449.88;;;4.59;100.00
34241;BME280;20503;50.200;19.508;2023-04-22T04:12:49;101441.30;;;4.64;100.00
34241;BME280;20503;50.200;19.508;2023-04-22T04:17:57;101438.97;;;4.69;100.00
34241;BME280;20503;50.200;19.508;2023-04-22T04:23:06;101450.60;;;4.79;100.00
34241;BME280;20503;50.200;19.508;2023-04-22T04:28:13;101452.30;;;4.80;100.00
34241;BME280;20503;50.200;19.508;2023-04-22T04:33:21;101450.56;;;4.96;100.00
34241;BME280;20503;50.200;19.508;2023-04-22T04:38:29;101452.28;;;5.40;100.00
34241;BME280;20503;50.200;19.508;2023-04-22T04:43:37;101453.73;;;6.03;96.19
34241;BME280;20503;50.200;19.508;2023-04-22T04:48:45;101461.44;;;6.97;89.02
34241;BME280;20503;50.200;19.508;2023-04-22T04:53:52;101453.11;;;7.30;86.33
34241;BME280;20503;50.200;19.508;2023-04-22T04:59:00;101466.02;;;7.52;84.28
34241;BME280;20503;50.200;19.508;2023-04-22T05:04:07;101460.53;;;8.38;81.72
34241;BME280;20503;50.200;19.508;2023-04-22T05:09:15;101462.12;;;8.86;80.09
34241;BME280;20503;50.200;19.508;2023-04-22T05:14:22;101458.45;;;9.75;76.26
34241;BME280;20503;50.200;19.508;2023-04-22T05:19:30;101457.77;;;10.24;73.99
34241;BME280;20503;50.200;19.508;2023-04-22T05:24:37;101468.09;;;11.35;71.67
34241;BME280;20503;50.200;19.508;2023-04-22T05:29:45;101460.70;;;12.99;65.23
34241;BME280;20503;50.200;19.508;2023-04-22T05:34:53;101459.98;;;13.69;63.64
34241;BME280;20503;50.200;19.508;2023-04-22T05:40:01;101471.02;;;15.09;60.37
34241;BME280;20503;50.200;19.508;2023-04-22T05:45:09;101462.88;;;16.25;58.17
34241;BME280;20503;50.200;19.508;2023-04-22T05:50:16;101459.31;;;17.66;53.93
34241;BME280;20503;50.200;19.508;2023-04-22T05:55:24;101470.08;;;18.09;50.77
34241;BME280;20503;50.200;19.508;2023-04-22T06:00:32;101478.59;;;19.88;45.76
34241;BME280;20503;50.200;19.508;2023-04-22T06:05:40;101480.17;;;20.00;45.58
34241;BME280;20503;50.200;19.508;2023-04-22T06:10:47;101476.28;;;19.24;44.41
34241;BME280;20503;50.200;19.508;2023-04-22T06:15:55;101480.45;;;20.32;46.43
34241;BME280;20503;50.200;19.508;2023-04-22T06:21:03;101482.68;;;21.58;41.22
34241;BME280;20503;50.200;19.508;2023-04-22T06:26:11;101466.04;;;22.31;39.54
34241;BME280;20503;50.200;19.508;2023-04-22T06:31:19;101489.10;;;22.17;34.87
34241;BME280;20503;50.200;19.508;2023-04-22T06:36:27;101489.66;;;23.06;31.06
34241;BME280;20503;50.200;19.508;2023-04-22T06:41:35;101481.16;;;24.88;28.08
34241;BME280;20503;50.200;19.508;2023-04-22T06:46:43;101482.92;;;24.19;28.63
34241;BME280;20503;50.200;19.508;2023-04-22T06:51:51;101490.88;;;23.20;26.49
34241;BME280;20503;50.200;19.508;2023-04-22T06:56:59;101472.24;;;23.71;26.89
34241;BME280;20503;50.200;19.508;2023-04-22T07:02:06;101489.76;;;21.18;27.44
34241;BME280;20503;50.200;19.508;2023-04-22T07:07:14;101483.59;;;22.68;26.24
34241;BME280;20503;50.200;19.508;2023-04-22T07:12:22;101489.24;;;21.00;28.00
34241;BME280;20503;50.200;19.508;2023-04-22T07:17:30;101486.34;;;21.90;26.92
34241;BME280;20503;50.200;19.508;2023-04-22T07:22:38;101496.43;;;22.64;26.00
34241;BME280;20503;50.200;19.508;2023-04-22T07:27:46;101480.95;;;22.47;27.30
34241;BME280;20503;50.200;19.508;2023-04-22T07:32:54;101489.24;;;21.00;28.65
34241;BME280;20503;50.200;19.508;2023-04-22T07:38:02;101490.86;;;23.15;25.16
34241;BME280;20503;50.200;19.508;2023-04-22T07:43:10;101476.52;;;21.08;26.68
34241;BME280;20503;50.200;19.508;2023-04-22T07:48:18;101490.05;;;23.25;26.15
34241;BME280;20503;50.200;19.508;2023-04-22T07:53:26;101491.91;;;21.90;27.73
34241;BME280;20503;50.200;19.508;2023-04-22T07:58:34;101489.61;;;22.14;26.71
34241;BME280;20503;50.200;19.508;2023-04-22T08:03:42;101476.64;;;23.27;25.33
34241;BME280;20503;50.200;19.508;2023-04-22T08:08:50;101486.06;;;22.60;26.64
34241;BME280;20503;50.200;19.508;2023-04-22T08:14:03;101496.90;;;24.49;23.93
34241;BME280;20503;50.200;19.508;2023-04-22T08:24:20;101484.87;;;24.28;24.09
34241;BME280;20503;50.200;19.508;2023-04-22T08:29:22;101493.94;;;25.18;25.27
34241;BME280;20503;50.200;19.508;2023-04-22T08:34:30;101494.48;;;25.25;24.39
34241;BME280;20503;50.200;19.508;2023-04-22T08:39:38;101491.86;;;22.48;26.96
34241;BME280;20503;50.200;19.508;2023-04-22T08:44:47;101468.85;;;21.68;27.52
34241;BME280;20503;50.200;19.508;2023-04-22T08:49:54;101487.93;;;22.44;27.30
34241;BME280;20503;50.200;19.508;2023-04-22T08:55:02;101481.30;;;21.61;28.13
34241;BME280;20503;50.200;19.508;2023-04-22T09:00:10;101472.81;;;22.04;28.29
34241;BME280;20503;50.200;19.508;2023-04-22T09:05:21;101486.61;;;20.34;29.81
34241;BME280;20503;50.200;19.508;2023-04-22T09:10:26;101469.10;;;21.93;28.82
34241;BME280;20503;50.200;19.508;2023-04-22T09:15:33;101483.04;;;20.93;30.42
34241;BME280;20503;50.200;19.508;2023-04-22T09:20:41;101470.39;;;22.17;29.15
34241;BME280;20503;50.200;19.508;2023-04-22T09:25:49;101472.62;;;20.67;29.60
34241;BME280;20503;50.200;19.508;2023-04-22T09:30:59;101458.72;;;20.29;31.23
34241;BME280;20503;50.200;19.508;2023-04-22T09:36:08;101457.21;;;20.05;32.28
34241;BME280;20503;50.200;19.508;2023-04-22T09:41:10;101452.13;;;19.69;33.90
34241;BME280;20503;50.200;19.508;2023-04-22T09:46:17;101444.15;;;21.82;30.65
34241;BME280;20503;50.200;19.508;2023-04-22T09:51:26;101456.23;;;20.11;31.69
34241;BME280;20503;50.200;19.508;2023-04-22T10:01:49;101423.16;;;19.81;31.34
34241;BME280;20503;50.200;19.508;2023-04-22T10:06:54;101437.91;;;20.15;31.00
34241;BME280;20503;50.200;19.508;2023-04-22T10:11:58;101425.41;;;19.35;31.62
34241;BME280;20503;50.200;19.508;2023-04-22T10:17:04;101417.27;;;19.45;31.94
34241;BME280;20503;50.200;19.508;2023-04-22T10:22:10;101439.42;;;20.22;31.40
34241;BME280;20503;50.200;19.508;2023-04-22T10:27:20;101429.85;;;19.19;31.81
34241;BME280;20503;50.200;19.508;2023-04-22T10:32:26;101420.58;;;20.46;30.45
34241;BME280;20503;50.200;19.508;2023-04-22T10:37:33;101426.22;;;19.19;32.37
34241;BME280;20503;50.200;19.508;2023-04-22T10:42:45;101419.07;;;19.23;32.13
34241;BME280;20503;50.200;19.508;2023-04-22T10:47:48;101421.23;;;19.49;31.94
34241;BME280;20503;50.200;19.508;2023-04-22T11:03:27;101400.97;;;20.57;30.32
34241;BME280;20503;50.200;19.508;2023-04-22T11:08:30;101400.60;;;19.45;30.35
34241;BME280;20503;50.200;19.508;2023-04-22T11:13:32;101383.98;;;19.17;31.20
34241;BME280;20503;50.200;19.508;2023-04-22T11:18:37;101405.93;;;19.18;30.13
34241;BME280;20503;50.200;19.508;2023-04-22T11:23:49;101381.27;;;18.94;29.91
34241;BME280;20503;50.200;19.508;2023-04-22T11:28:58;101376.33;;;19.24;29.57
34241;BME280;20503;50.200;19.508;2023-04-22T11:34:00;101377.45;;;19.11;29.32
34241;BME280;20503;50.200;19.508;2023-04-22T11:39:09;101393.09;;;19.29;29.60
34241;BME280;20503;50.200;19.508;2023-04-22T11:44:24;101377.45;;;19.11;29.12
34241;BME280;20503;50.200;19.508;2023-04-22T11:49:27;101371.02;;;20.05;29.33
34241;BME280;20503;50.200;19.508;2023-04-22T11:54:34;101376.93;;;19.59;27.96
34241;BME280;20503;50.200;19.508;2023-04-22T11:59:37;101370.87;;;20.33;28.02
34241;BME280;20503;50.200;19.508;2023-04-22T12:04:45;101369.49;;;19.97;27.39
34241;BME280;20503;50.200;19.508;2023-04-22T12:09:53;101375.94;;;19.65;28.96
34241;BME280;20503;50.200;19.508;2023-04-22T12:15:09;101369.77;;;19.96;28.87
34241;BME280;20503;50.200;19.508;2023-04-22T12:20:11;101367.31;;;19.17;27.84
34241;BME280;20503;50.200;19.508;2023-04-22T12:25:18;101347.55;;;20.17;29.39
34241;BME280;20503;50.200;19.508;2023-04-22T12:30:23;101355.98;;;19.68;29.15
34241;BME280;20503;50.200;19.508;2023-04-22T12:35:31;101354.42;;;19.93;29.27
34241;BME280;20503;50.200;19.508;2023-04-22T12:40:39;101348.23;;;19.37;29.16
34241;BME280;20503;50.200;19.508;2023-04-22T12:45:48;101343.25;;;20.48;28.23
34241;BME280;20503;50.200;19.508;2023-04-22T12:50:54;101339.06;;;21.19;26.37
34241;BME280;20503;50.200;19.508;2023-04-22T12:56:02;101330.98;;;21.18;26.88
34241;BME280;20503;50.200;19.508;2023-04-22T13:01:10;101318.98;;;20.22;29.59
34241;BME280;20503;50.200;19.508;2023-04-22T13:06:18;101321.50;;;20.02;28.97
34241;BME280;20503;50.200;19.508;2023-04-22T13:11:27;101324.88;;;19.87;27.85
34241;BME280;20503;50.200;19.508;2023-04-22T13:16:34;101309.88;;;20.96;28.62
34241;BME280;20503;50.200;19.508;2023-04-22T13:21:42;101309.41;;;21.71;28.25
34241;BME280;20503;50.200;19.508;2023-04-22T13:26:50;101313.60;;;20.58;27.76
34241;BME280;20503;50.200;19.508;2023-04-22T13:31:57;101305.68;;;20.72;28.91
34241;BME280;20503;50.200;19.508;2023-04-22T13:37:06;101306.56;;;20.51;27.96
34241;BME280;20503;50.200;19.508;2023-04-22T13:42:13;101306.03;;;21.02;26.96
34241;BME280;20503;50.200;19.508;2023-04-22T13:47:21;101296.31;;;21.67;27.00
34241;BME280;20503;50.200;19.508;2023-04-22T13:52:28;101295.87;;;21.85;29.58
34241;BME280;20503;50.200;19.508;2023-04-22T13:57:36;101290.60;;;21.20;28.32
34241;BME280;20503;50.200;19.508;2023-04-22T14:02:44;101290.08;;;20.71;27.07
34241;BME280;20503;50.200;19.508;2023-04-22T14:07:52;101292.42;;;19.93;27.23
34241;BME280;20503;50.200;19.508;2023-04-22T14:12:59;101281.39;;;19.98;27.44
34241;BME280;20503;50.200;19.508;2023-04-22T14:18:07;101279.48;;;20.68;26.66
34241;BME280;20503;50.200;19.508;2023-04-22T14:23:15;101283.16;;;20.04;28.20
34241;BME280;20503;50.200;19.508;2023-04-22T14:28:22;101275.38;;;20.75;27.18
34241;BME280;20503;50.200;19.508;2023-04-22T14:33:30;101278.95;;;20.23;26.60
34241;BME280;20503;50.200;19.508;2023-04-22T14:38:37;101274.42;;;21.17;26.56
34241;BME280;20503;50.200;19.508;2023-04-22T14:43:45;101252.91;;;21.08;27.73
34241;BME280;20503;50.200;19.508;2023-04-22T14:48:53;101256.63;;;21.60;26.23
34241;BME280;20503;50.200;19.508;2023-04-22T14:54:01;101261.01;;;21.09;26.81
34241;BME280;20503;50.200;19.508;2023-04-22T14:59:08;101261.63;;;19.56;29.78
34241;BME280;20503;50.200;19.508;2023-04-22T15:04:16;101262.82;;;19.82;31.08
34241;BME280;20503;50.200;19.508;2023-04-22T15:09:24;101251.96;;;19.42;30.79
34241;BME280;20503;50.200;19.508;2023-04-22T15:14:32;101249.35;;;19.74;31.20
34241;BME280;20503;50.200;19.508;2023-04-22T15:19:39;101253.39;;;19.45;30.96
34241;BME280;20503;50.200;19.508;2023-04-22T15:24:47;101251.78;;;19.16;31.75
34241;BME280;20503;50.200;19.508;2023-04-22T15:29:54;101249.98;;;19.21;31.67
34241;BME280;20503;50.200;19.508;2023-04-22T15:35:02;101255.29;;;18.79;32.92
34241;BME280;20503;50.200;19.508;2023-04-22T15:40:10;101257.83;;;18.80;32.78
34241;BME280;20503;50.200;19.508;2023-04-22T15:45:18;101264.05;;;18.87;32.10
34241;BME280;20503;50.200;19.508;2023-04-22T15:50:25;101250.04;;;18.49;33.09
34241;BME280;20503;50.200;19.508;2023-04-22T15:55:33;101247.77;;;18.46;33.15
34241;BME280;20503;50.200;19.508;2023-04-22T16:00:41;101240.63;;;18.50;33.52
34241;BME280;20503;50.200;19.508;2023-04-22T16:05:49;101246.91;;;18.46;33.58
34241;BME280;20503;50.200;19.508;2023-04-22T16:10:57;101249.15;;;18.32;33.30
34241;BME280;20503;50.200;19.508;2023-04-22T16:16:04;101237.15;;;18.43;33.69
34241;BME280;20503;50.200;19.508;2023-04-22T16:21:11;101246.61;;;18.31;33.92
34241;BME280;20503;50.200;19.508;2023-04-22T16:26:19;101239.62;;;18.28;34.70
34241;BME280;20503;50.200;19.508;2023-04-22T16:31:26;101240.64;;;18.11;34.70
34241;BME280;20503;50.200;19.508;2023-04-22T16:36:34;101249.95;;;17.93;35.08
34241;BME280;20503;50.200;19.508;2023-04-22T16:41:42;101242.63;;;17.87;35.50
34241;BME280;20503;50.200;19.508;2023-04-22T16:46:50;101228.22;;;17.74;35.78
34241;BME280;20503;50.200;19.508;2023-04-22T16:55:45;101233.77;;;17.51;36.02
34241;BME280;20503;50.200;19.508;2023-04-22T17:00:52;101233.57;;;17.41;36.20
34241;BME280;20503;50.200;19.508;2023-04-22T17:06:00;101220.91;;;17.33;37.02
34241;BME280;20503;50.200;19.508;2023-04-22T17:11:08;101227.77;;;17.08;37.33
34241;BME280;20503;50.200;19.508;2023-04-22T17:16:16;101233.14;;;16.92;37.98
34241;BME280;20503;50.200;19.508;2023-04-22T17:21:24;101229.51;;;16.80;38.78
34241;BME280;20503;50.200;19.508;2023-04-22T17:26:32;101221.46;;;16.67;39.76
34241;BME280;20503;50.200;19.508;2023-04-22T17:31:39;101230.43;;;16.51;40.21
34241;BME280;20503;50.200;19.508;2023-04-22T17:36:47;101231.09;;;16.35;40.51
34241;BME280;20503;50.200;19.508;2023-04-22T17:41:55;101235.56;;;16.18;41.39
34241;BME280;20503;50.200;19.508;2023-04-22T17:47:04;101239.52;;;15.92;40.87
34241;BME280;20503;50.200;19.508;2023-04-22T17:52:12;101243.91;;;15.82;41.20
34241;BME280;20503;50.200;19.508;2023-04-22T17:57:19;101247.72;;;15.63;41.43
34241;BME280;20503;50.200;19.508;2023-04-22T18:02:27;101253.23;;;15.45;42.22
34241;BME280;20503;50.200;19.508;2023-04-22T18:07:35;101252.35;;;15.26;42.48
34241;BME280;20503;50.200;19.508;2023-04-22T18:12:43;101258.30;;;15.23;42.24
34241;BME280;20503;50.200;19.508;2023-04-22T18:17:51;101265.34;;;15.19;41.80
34241;BME280;20503;50.200;19.508;2023-04-22T18:22:59;101263.51;;;15.13;42.09
34241;BME280;20503;50.200;19.508;2023-04-22T18:28:08;101266.32;;;15.07;42.22
34241;BME280;20503;50.200;19.508;2023-04-22T18:33:15;101263.10;;;15.10;41.71
34241;BME280;20503;50.200;19.508;2023-04-22T18:38:23;101266.62;;;14.99;41.87
34241;BME280;20503;50.200;19.508;2023-04-22T18:43:31;101258.10;;;15.01;41.73
34241;BME280;20503;50.200;19.508;2023-04-22T18:48:39;101270.25;;;14.93;41.83
34241;BME280;20503;50.200;19.508;2023-04-22T18:53:47;101266.77;;;14.80;42.42
34241;BME280;20503;50.200;19.508;2023-04-22T18:58:54;101276.16;;;14.72;42.32
34241;BME280;20503;50.200;19.508;2023-04-22T19:04:02;101275.26;;;14.78;42.13
34241;BME280;20503;50.200;19.508;2023-04-22T19:09:10;101267.93;;;14.66;42.29
34241;BME280;20503;50.200;19.508;2023-04-22T19:14:18;101269.62;;;14.67;42.32
34241;BME280;20503;50.200;19.508;2023-04-22T19:19:26;101270.31;;;14.56;42.71
34241;BME280;20503;50.200;19.508;2023-04-22T19:24:34;101269.05;;;14.58;42.45
34241;BME280;20503;50.200;19.508;2023-04-22T19:29:42;101262.74;;;14.51;42.90
34241;BME280;20503;50.200;19.508;2023-04-22T19:34:49;101260.20;;;14.50;43.04
34241;BME280;20503;50.200;19.508;2023-04-22T19:39:57;101266.16;;;14.47;43.07
34241;BME280;20503;50.200;19.508;2023-04-22T19:45:08;101256.90;;;14.35;43.28
34241;BME280;20503;50.200;19.508;2023-04-22T19:50:13;101255.26;;;14.27;43.45
34241;BME280;20503;50.200;19.508;2023-04-22T19:55:20;101266.92;;;14.23;43.68
34241;BME280;20503;50.200;19.508;2023-04-22T20:00:29;101255.09;;;14.22;43.56
34241;BME280;20503;50.200;19.508;2023-04-22T20:05:37;101250.02;;;14.19;43.43
34241;BME280;20503;50.200;19.508;2023-04-22T20:10:45;101251.91;;;14.19;43.33
34241;BME280;20503;50.200;19.508;2023-04-22T20:15:52;101257.24;;;14.07;43.81
34241;BME280;20503;50.200;19.508;2023-04-22T20:21:01;101261.24;;;14.18;43.04
34241;BME280;20503;50.200;19.508;2023-04-22T20:26:08;101254.28;;;14.09;43.17
34241;BME280;20503;50.200;19.508;2023-04-22T20:31:18;101248.59;;;13.97;43.45
34241;BME280;20503;50.200;19.508;2023-04-22T20:36:25;101251.73;;;14.07;42.79
34241;BME280;20503;50.200;19.508;2023-04-22T20:41:36;101247.71;;;14.10;42.79
34241;BME280;20503;50.200;19.508;2023-04-22T20:46:40;101243.68;;;14.06;42.65
34241;BME280;20503;50.200;19.508;2023-04-22T20:51:48;101244.55;;;14.06;42.17
34241;BME280;20503;50.200;19.508;2023-04-22T20:56:56;101236.46;;;14.11;41.83
34241;BME280;20503;50.200;19.508;2023-04-22T21:02:05;101235.84;;;14.09;41.44
34241;BME280;20503;50.200;19.508;2023-04-22T21:07:14;101233.70;;;14.11;41.24
34241;BME280;20503;50.200;19.508;2023-04-22T21:12:21;101237.52;;;14.17;40.49
34241;BME280;20503;50.200;19.508;2023-04-22T21:17:30;101237.31;;;14.18;40.32
34241;BME280;20503;50.200;19.508;2023-04-22T21:22:41;101235.36;;;14.25;39.95
34241;BME280;20503;50.200;19.508;2023-04-22T21:27:45;101226.02;;;14.26;40.68
34241;BME280;20503;50.200;19.508;2023-04-22T21:32:53;101232.43;;;14.20;41.10
34241;BME280;20503;50.200;19.508;2023-04-22T21:38:01;101232.88;;;14.11;41.98
34241;BME280;20503;50.200;19.508;2023-04-22T21:43:12;101238.38;;;14.11;42.17
34241;BME280;20503;50.200;19.508;2023-04-22T21:48:18;101241.55;;;14.08;42.57
34241;BME280;20503;50.200;19.508;2023-04-22T21:53:26;101233.98;;;14.03;42.86
34241;BME280;20503;50.200;19.508;2023-04-22T21:58:35;101241.82;;;14.00;43.16
34241;BME280;20503;50.200;19.508;2023-04-22T22:03:42;101235.55;;;13.86;43.74
34241;BME280;20503;50.200;19.508;2023-04-22T22:08:52;101226.60;;;13.91;43.89
34241;BME280;20503;50.200;19.508;2023-04-22T22:13:58;101230.45;;;13.83;44.24
34241;BME280;20503;50.200;19.508;2023-04-22T22:19:07;101225.21;;;13.75;44.69
34241;BME280;20503;50.200;19.508;2023-04-22T22:24:14;101224.77;;;13.78;44.62
34241;BME280;20503;50.200;19.508;2023-04-22T22:29:21;101230.09;;;13.73;44.89
34241;BME280;20503;50.200;19.508;2023-04-22T22:34:29;101231.77;;;13.74;44.82
34241;BME280;20503;50.200;19.508;2023-04-22T22:39:39;101222.42;;;13.82;44.46
34241;BME280;20503;50.200;19.508;2023-04-22T22:44:45;101225.16;;;13.88;44.68
34241;BME280;20503;50.200;19.508;2023-04-22T22:49:54;101215.65;;;13.84;44.62
34241;BME280;20503;50.200;19.508;2023-04-22T22:55:02;101212.61;;;13.99;44.31
34241;BME280;20503;50.200;19.508;2023-04-22T23:00:13;101210.59;;;13.75;44.92
34241;BME280;20503;50.200;19.508;2023-04-22T23:05:17;101213.70;;;13.91;44.73
34241;BME280;20503;50.200;19.508;2023-04-22T23:10:25;101206.96;;;13.87;44.63
34241;BME280;20503;50.200;19.508;2023-04-22T23:15:34;101214.82;;;13.77;45.33
34241;BME280;20503;50.200;19.508;2023-04-22T23:20:45;101219.55;;;13.64;45.78
34241;BME280;20503;50.200;19.508;2023-04-22T23:25:51;101204.73;;;13.65;45.61
34241;BME280;20503;50.200;19.508;2023-04-22T23:31:00;101208.96;;;13.67;45.71
34241;BME280;20503;50.200;19.508;2023-04-22T23:36:08;101204.34;;;13.48;46.41
34241;BME280;20503;50.200;19.508;2023-04-22T23:41:13;101207.38;;;13.34;47.17
34241;BME280;20503;50.200;19.508;2023-04-22T23:46:20;101205.26;;;13.29;47.36
34241;BME280;20503;50.200;19.508;2023-04-22T23:51:28;101197.92;;;13.11;48.32
34241;BME280;20503;50.200;19.508;2023-04-22T23:56:36;101198.15;;;13.03;48.67
